sensor_id;sensor_type;location;lat;lon;timestamp;pressure;altitude;pressure_sealevel;temperature;humidity
70546;BME280;58098;51.680;5.134;2023-06-22T00:01:16;101970.13;;;19.27;100.00
70546;BME280;58098;51.680;5.134;2023-06-22T00:03:42;101952.13;;;19.13;100.00
70546;BME280;58098;51.680;5.134;2023-06-22T00:06:07;101954.88;;;19.11;100.00
70546;BME280;58098;51.680;5.134;2023-06-22T00:08:32;101960.34;;;19.09;100.00
70546;BME280;58098;51.680;5.134;2023-06-22T00:10:58;101968.28;;;19.09;100.00
70546;BME280;58098;51.680;5.134;2023-06-22T00:13:23;101972.50;;;19.02;100.00
70546;BME280;58098;51.680;5.134;2023-06-22T00:15:48;101962.78;;;18.93;100.00
70546;BME280;58098;51.680;5.134;2023-06-22T00:18:14;101971.44;;;18.95;100.00
70546;BME280;58098;51.680;5.134;2023-06-22T00:20:39;101963.34;;;18.97;100.00
70546;BME280;58098;51.680;5.134;2023-06-22T00:23:07;101962.44;;;18.88;100.00
70546;BME280;58098;51.680;5.134;2023-06-22T00:25:37;101945.91;;;18.77;100.00
70546;BME280;58098;51.680;5.134;2023-06-22T00:28:05;101948.59;;;18.67;100.00
70546;BME280;58098;51.680;5.134;2023-06-22T00:30:31;101955.44;;;18.60;100.00
70546;BME280;58098;51.680;5.134;2023-06-22T00:32:57;101953.06;;;18.57;100.00
70546;BME280;58098;51.680;5.134;2023-06-22T00:35:23;101962.69;;;18.58;100.00
70546;BME280;58098;51.680;5.134;2023-06-22T00:37:54;101959.59;;;18.63;100.00
70546;BME280;58098;51.680;5.134;2023-06-22T00:40:26;101962.41;;;18.61;100.00
70546;BME280;58098;51.680;5.134;2023-06-22T00:42:51;101956.28;;;18.61;100.00
70546;BME280;58098;51.680;5.134;2023-06-22T00:45:16;101951.97;;;18.60;100.00
70546;BME280;58098;51.680;5.134;2023-06-22T00:47:42;101954.59;;;18.60;100.00
70546;BME280;58098;51.680;5.134;2023-06-22T00:50:09;101963.38;;;18.60;100.00
70546;BME280;58098;51.680;5.134;2023-06-22T00:52:38;101958.81;;;18.53;100.00
70546;BME280;58098;51.680;5.134;2023-06-22T00:55:08;101964.66;;;18.56;100.00
70546;BME280;58098;51.680;5.134;2023-06-22T00:57:34;101953.97;;;18.48;100.00
70546;BME280;58098;51.680;5.134;2023-06-22T01:00:03;101944.22;;;18.39;100.00
70546;BME280;58098;51.680;5.134;2023-06-22T01:02:31;101951.03;;;18.41;100.00
70546;BME280;58098;51.680;5.134;2023-06-22T01:04:57;101947.44;;;18.33;100.00
70546;BME280;58098;51.680;5.134;2023-06-22T01:07:31;101941.66;;;18.20;100.00
70546;BME280;58098;51.680;5.134;2023-06-22T01:10:08;101940.41;;;18.14;100.00
70546;BME280;58098;51.680;5.134;2023-06-22T01:12:45;101945.44;;;18.08;100.00
70546;BME280;58098;51.680;5.134;2023-06-22T01:15:29;101942.81;;;17.98;100.00
70546;BME280;58098;51.680;5.134;2023-06-22T01:17:57;101935.28;;;17.94;100.00
70546;BME280;58098;51.680;5.134;2023-06-22T01:20:25;101927.53;;;17.83;100.00
70546;BME280;58098;51.680;5.134;2023-06-22T01:23:11;101951.13;;;17.94;100.00
70546;BME280;58098;51.680;5.134;2023-06-22T01:25:48;101942.25;;;17.85;100.00
70546;BME280;58098;51.680;5.134;2023-06-22T01:28:48;101947.41;;;17.87;100.00
70546;BME280;58098;51.680;5.134;2023-06-22T01:31:16;101941.44;;;17.85;100.00
70546;BME280;58098;51.680;5.134;2023-06-22T01:33:45;101953.41;;;17.89;100.00
70546;BME280;58098;51.680;5.134;2023-06-22T01:36:13;101945.75;;;17.86;100.00
70546;BME280;58098;51.680;5.134;2023-06-22T01:38:39;101950.03;;;17.87;100.00
70546;BME280;58098;51.680;5.134;2023-06-22T01:41:05;101950.63;;;17.80;100.00
70546;BME280;58098;51.680;5.134;2023-06-22T01:43:31;101960.19;;;17.81;100.00
70546;BME280;58098;51.680;5.134;2023-06-22T01:46:01;101952.56;;;17.78;100.00
70546;BME280;58098;51.680;5.134;2023-06-22T01:48:27;101958.81;;;17.77;100.00
70546;BME280;58098;51.680;5.134;2023-06-22T01:50:53;101957.97;;;17.77;100.00
70546;BME280;58098;51.680;5.134;2023-06-22T01:53:21;101965.09;;;17.76;100.00
70546;BME280;58098;51.680;5.134;2023-06-22T01:55:47;101952.28;;;17.72;100.00
70546;BME280;58098;51.680;5.134;2023-06-22T01:58:12;101949.09;;;17.59;100.00
70546;BME280;58098;51.680;5.134;2023-06-22T02:00:40;101947.31;;;17.59;100.00
70546;BME280;58098;51.680;5.134;2023-06-22T02:03:14;101960.19;;;17.62;100.00
70546;BME280;58098;51.680;5.134;2023-06-22T02:06:04;101951.75;;;17.59;100.00
70546;BME280;58098;51.680;5.134;2023-06-22T02:08:36;101945.78;;;17.57;100.00
70546;BME280;58098;51.680;5.134;2023-06-22T02:11:03;101952.84;;;17.56;100.00
70546;BME280;58098;51.680;5.134;2023-06-22T02:13:30;101942.38;;;17.45;100.00
70546;BME280;58098;51.680;5.134;2023-06-22T02:15:56;101946.97;;;17.43;100.00
70546;BME280;58098;51.680;5.134;2023-06-22T02:18:21;101952.66;;;17.48;100.00
70546;BME280;58098;51.680;5.134;2023-06-22T02:20:46;101936.69;;;17.40;100.00
70546;BME280;58098;51.680;5.134;2023-06-22T02:23:12;101943.63;;;17.41;100.00
70546;BME280;58098;51.680;5.134;2023-06-22T02:25:37;101935.28;;;17.36;100.00
70546;BME280;58098;51.680;5.134;2023-06-22T02:28:03;101938.91;;;17.35;100.00
70546;BME280;58098;51.680;5.134;2023-06-22T02:30:28;101942.94;;;17.39;100.00
70546;BME280;58098;51.680;5.134;2023-06-22T02:32:54;101925.84;;;17.24;100.00
70546;BME280;58098;51.680;5.134;2023-06-22T02:35:25;101936.25;;;17.26;100.00
70546;BME280;58098;51.680;5.134;2023-06-22T02:37:51;101926.13;;;17.21;100.00
70546;BME280;58098;51.680;5.134;2023-06-22T02:40:17;101923.63;;;17.20;100.00
70546;BME280;58098;51.680;5.134;2023-06-22T02:42:42;101929.31;;;17.25;100.00
70546;BME280;58098;51.680;5.134;2023-06-22T02:45:07;101919.72;;;17.14;100.00
70546;BME280;58098;51.680;5.134;2023-06-22T02:47:33;101919.59;;;17.15;100.00
70546;BME280;58098;51.680;5.134;2023-06-22T02:49:58;101923.88;;;17.16;100.00
70546;BME280;58098;51.680;5.134;2023-06-22T02:52:24;101924.56;;;17.18;100.00
70546;BME280;58098;51.680;5.134;2023-06-22T02:54:49;101921.66;;;17.12;100.00
70546;BME280;58098;51.680;5.134;2023-06-22T02:57:14;101921.66;;;17.02;100.00
70546;BME280;58098;51.680;5.134;2023-06-22T02:59:40;101914.16;;;16.98;100.00
70546;BME280;58098;51.680;5.134;2023-06-22T03:02:09;101927.06;;;17.01;100.00
70546;BME280;58098;51.680;5.134;2023-06-22T03:04:35;101927.47;;;17.06;100.00
70546;BME280;58098;51.680;5.134;2023-06-22T03:07:01;101904.72;;;16.95;100.00
70546;BME280;58098;51.680;5.134;2023-06-22T03:09:27;101901.91;;;16.97;100.00
70546;BME280;58098;51.680;5.134;2023-06-22T03:11:54;101891.94;;;16.91;100.00
70546;BME280;58098;51.680;5.134;2023-06-22T03:14:19;101905.94;;;16.91;100.00
70546;BME280;58098;51.680;5.134;2023-06-22T03:16:44;101886.34;;;16.84;100.00
70546;BME280;58098;51.680;5.134;2023-06-22T03:19:10;101891.50;;;16.86;100.00
70546;BME280;58098;51.680;5.134;2023-06-22T03:21:37;101890.53;;;16.87;100.00
70546;BME280;58098;51.680;5.134;2023-06-22T03:24:04;101888.59;;;16.89;100.00
70546;BME280;58098;51.680;5.134;2023-06-22T03:26:30;101887.34;;;16.93;100.00
70546;BME280;58098;51.680;5.134;2023-06-22T03:28:55;101894.28;;;16.94;100.00
70546;BME280;58098;51.680;5.134;2023-06-22T03:31:20;101894.44;;;16.92;100.00
70546;BME280;58098;51.680;5.134;2023-06-22T03:33:50;101881.63;;;16.78;100.00
70546;BME280;58098;51.680;5.134;2023-06-22T03:36:16;101884.13;;;16.80;100.00
70546;BME280;58098;51.680;5.134;2023-06-22T03:38:49;101886.31;;;16.75;100.00
70546;BME280;58098;51.680;5.134;2023-06-22T03:41:15;101900.78;;;16.80;100.00
70546;BME280;58098;51.680;5.134;2023-06-22T03:43:40;101893.03;;;16.79;100.00
70546;BME280;58098;51.680;5.134;2023-06-22T03:46:06;101891.59;;;16.75;100.00
70546;BME280;58098;51.680;5.134;2023-06-22T03:48:31;101885.09;;;16.69;100.00
70546;BME280;58098;51.680;5.134;2023-06-22T03:50:59;101901.88;;;16.78;100.00
70546;BME280;58098;51.680;5.134;2023-06-22T03:53:24;101895.09;;;16.85;100.00
70546;BME280;58098;51.680;5.134;2023-06-22T03:55:50;101902.56;;;16.80;100.00
70546;BME280;58098;51.680;5.134;2023-06-22T03:58:18;101889.69;;;16.77;100.00
70546;BME280;58098;51.680;5.134;2023-06-22T04:00:45;101885.22;;;16.77;100.00
70546;BME280;58098;51.680;5.134;2023-06-22T04:03:11;101894.16;;;16.86;100.00
70546;BME280;58098;51.680;5.134;2023-06-22T04:05:38;101888.47;;;16.90;100.00
70546;BME280;58098;51.680;5.134;2023-06-22T04:08:04;101854.44;;;16.78;100.00
70546;BME280;58098;51.680;5.134;2023-06-22T04:10:29;101886.94;;;16.97;100.00
70546;BME280;58098;51.680;5.134;2023-06-22T04:12:55;101873.06;;;16.95;100.00
70546;BME280;58098;51.680;5.134;2023-06-22T04:15:20;101874.88;;;17.04;100.00
70546;BME280;58098;51.680;5.134;2023-06-22T04:17:45;101875.16;;;17.11;100.00
70546;BME280;58098;51.680;5.134;2023-06-22T04:20:11;101886.84;;;17.18;100.00
70546;BME280;58098;51.680;5.134;2023-06-22T04:22:36;101872.25;;;17.14;100.00
70546;BME280;58098;51.680;5.134;2023-06-22T04:25:01;101873.09;;;17.24;100.00
70546;BME280;58098;51.680;5.134;2023-06-22T04:27:27;101872.25;;;17.24;100.00
70546;BME280;58098;51.680;5.134;2023-06-22T04:29:52;101877.50;;;17.33;100.00
70546;BME280;58098;51.680;5.134;2023-06-22T04:32:18;101888.38;;;17.40;100.00
70546;BME280;58098;51.680;5.134;2023-06-22T04:34:43;101895.88;;;17.44;100.00
70546;BME280;58098;51.680;5.134;2023-06-22T04:37:09;101890.44;;;17.46;100.00
70546;BME280;58098;51.680;5.134;2023-06-22T04:39:34;101871.69;;;17.39;100.00
70546;BME280;58098;51.680;5.134;2023-06-22T04:42:01;101896.97;;;17.51;100.00
70546;BME280;58098;51.680;5.134;2023-06-22T04:44:26;101893.38;;;17.52;100.00
70546;BME280;58098;51.680;5.134;2023-06-22T04:46:57;101901.44;;;17.60;100.00
70546;BME280;58098;51.680;5.134;2023-06-22T04:49:27;101880.88;;;17.54;100.00
70546;BME280;58098;51.680;5.134;2023-06-22T04:52:02;101904.50;;;17.65;100.00
70546;BME280;58098;51.680;5.134;2023-06-22T04:54:28;101893.94;;;17.65;100.00
70546;BME280;58098;51.680;5.134;2023-06-22T04:56:54;101886.69;;;17.67;100.00
70546;BME280;58098;51.680;5.134;2023-06-22T04:59:29;101897.25;;;17.77;100.00
70546;BME280;58098;51.680;5.134;2023-06-22T05:02:00;101887.78;;;17.74;100.00
70546;BME280;58098;51.680;5.134;2023-06-22T05:04:27;101891.84;;;17.78;100.00
70546;BME280;58098;51.680;5.134;2023-06-22T05:06:53;101894.16;;;17.81;100.00
70546;BME280;58098;51.680;5.134;2023-06-22T05:09:20;101892.94;;;17.86;100.00
70546;BME280;58098;51.680;5.134;2023-06-22T05:11:45;101893.03;;;17.94;100.00
70546;BME280;58098;51.680;5.134;2023-06-22T05:14:11;101901.50;;;18.07;100.00
70546;BME280;58098;51.680;5.134;2023-06-22T05:16:37;101897.56;;;18.11;100.00
70546;BME280;58098;51.680;5.134;2023-06-22T05:19:03;101888.41;;;18.15;100.00
70546;BME280;58098;51.680;5.134;2023-06-22T05:21:30;101877.13;;;18.22;100.00
70546;BME280;58098;51.680;5.134;2023-06-22T05:23:56;101873.19;;;18.26;100.00
70546;BME280;58098;51.680;5.134;2023-06-22T05:26:26;101875.78;;;18.36;100.00
70546;BME280;58098;51.680;5.134;2023-06-22T05:28:52;101878.66;;;18.42;100.00
70546;BME280;58098;51.680;5.134;2023-06-22T05:31:18;101888.44;;;18.52;100.00
70546;BME280;58098;51.680;5.134;2023-06-22T05:33:48;101887.97;;;18.56;100.00
70546;BME280;58098;51.680;5.134;2023-06-22T05:36:14;101873.25;;;18.54;100.00
70546;BME280;58098;51.680;5.134;2023-06-22T05:38:39;101879.84;;;18.67;100.00
70546;BME280;58098;51.680;5.134;2023-06-22T05:41:05;101868.81;;;18.72;100.00
70546;BME280;58098;51.680;5.134;2023-06-22T05:43:31;101869.06;;;18.78;100.00
70546;BME280;58098;51.680;5.134;2023-06-22T05:45:56;101868.84;;;18.89;100.00
70546;BME280;58098;51.680;5.134;2023-06-22T05:48:22;101875.97;;;19.06;100.00
70546;BME280;58098;51.680;5.134;2023-06-22T05:50:47;101862.66;;;19.16;100.00
70546;BME280;58098;51.680;5.134;2023-06-22T05:53:12;101857.28;;;19.26;100.00
70546;BME280;58098;51.680;5.134;2023-06-22T05:55:38;101860.41;;;19.39;100.00
70546;BME280;58098;51.680;5.134;2023-06-22T05:58:03;101860.81;;;19.52;100.00
70546;BME280;58098;51.680;5.134;2023-06-22T06:00:29;101857.47;;;19.67;100.00
70546;BME280;58098;51.680;5.134;2023-06-22T06:02:54;101865.09;;;19.88;100.00
70546;BME280;58098;51.680;5.134;2023-06-22T06:05:20;101863.50;;;20.03;100.00
70546;BME280;58098;51.680;5.134;2023-06-22T06:07:46;101833.88;;;20.08;100.00
70546;BME280;58098;51.680;5.134;2023-06-22T06:10:11;101850.44;;;20.35;100.00
70546;BME280;58098;51.680;5.134;2023-06-22T06:12:37;101838.19;;;20.42;100.00
70546;BME280;58098;51.680;5.134;2023-06-22T06:15:03;101839.06;;;20.51;100.00
70546;BME280;58098;51.680;5.134;2023-06-22T06:17:29;101849.19;;;20.56;100.00
70546;BME280;58098;51.680;5.134;2023-06-22T06:19:54;101851.50;;;20.51;100.00
70546;BME280;58098;51.680;5.134;2023-06-22T06:22:20;101850.88;;;20.65;100.00
70546;BME280;58098;51.680;5.134;2023-06-22T06:24:47;101873.75;;;20.74;100.00
70546;BME280;58098;51.680;5.134;2023-06-22T06:27:13;101868.31;;;20.83;100.00
70546;BME280;58098;51.680;5.134;2023-06-22T06:29:38;101871.50;;;20.95;100.00
70546;BME280;58098;51.680;5.134;2023-06-22T06:32:04;101859.25;;;21.02;100.00
70546;BME280;58098;51.680;5.134;2023-06-22T06:34:29;101864.63;;;21.26;100.00
70546;BME280;58098;51.680;5.134;2023-06-22T06:36:54;101866.44;;;21.34;100.00
70546;BME280;58098;51.680;5.134;2023-06-22T06:39:20;101862.97;;;21.41;100.00
70546;BME280;58098;51.680;5.134;2023-06-22T06:41:45;101856.63;;;21.50;100.00
70546;BME280;58098;51.680;5.134;2023-06-22T06:44:11;101858.78;;;21.63;100.00
70546;BME280;58098;51.680;5.134;2023-06-22T06:46:36;101843.97;;;21.68;100.00
70546;BME280;58098;51.680;5.134;2023-06-22T06:49:03;101855.94;;;21.89;100.00
70546;BME280;58098;51.680;5.134;2023-06-22T06:51:28;101859.22;;;22.07;100.00
70546;BME280;58098;51.680;5.134;2023-06-22T06:53:53;101839.25;;;22.19;100.00
70546;BME280;58098;51.680;5.134;2023-06-22T06:56:19;101852.16;;;22.30;100.00
70546;BME280;58098;51.680;5.134;2023-06-22T06:58:44;101835.22;;;22.31;100.00
70546;BME280;58098;51.680;5.134;2023-06-22T07:01:11;101849.59;;;22.45;100.00
70546;BME280;58098;51.680;5.134;2023-06-22T07:03:37;101848.31;;;22.71;100.00
70546;BME280;58098;51.680;5.134;2023-06-22T07:06:02;101844.13;;;22.77;100.00
70546;BME280;58098;51.680;5.134;2023-06-22T07:08:27;101840.13;;;22.81;100.00
70546;BME280;58098;51.680;5.134;2023-06-22T07:10:53;101850.28;;;23.00;100.00
70546;BME280;58098;51.680;5.134;2023-06-22T07:13:19;101826.94;;;22.87;100.00
70546;BME280;58098;51.680;5.134;2023-06-22T07:15:44;101846.09;;;23.06;100.00
70546;BME280;58098;51.680;5.134;2023-06-22T07:18:09;101840.06;;;23.12;100.00
70546;BME280;58098;51.680;5.134;2023-06-22T07:20:35;101833.88;;;23.19;100.00
70546;BME280;58098;51.680;5.134;2023-06-22T07:23:00;101832.69;;;23.22;100.00
70546;BME280;58098;51.680;5.134;2023-06-22T07:25:26;101828.34;;;23.21;100.00
70546;BME280;58098;51.680;5.134;2023-06-22T07:28:06;101829.75;;;23.31;100.00
70546;BME280;58098;51.680;5.134;2023-06-22T07:30:32;101826.22;;;23.16;100.00
70546;BME280;58098;51.680;5.134;2023-06-22T07:32:58;101820.91;;;23.16;100.00
70546;BME280;58098;51.680;5.134;2023-06-22T07:35:28;101830.13;;;23.28;100.00
70546;BME280;58098;51.680;5.134;2023-06-22T07:37:54;101825.13;;;23.25;100.00
70546;BME280;58098;51.680;5.134;2023-06-22T07:40:19;101825.84;;;23.42;100.00
70546;BME280;58098;51.680;5.134;2023-06-22T07:42:44;101825.03;;;23.41;100.00
70546;BME280;58098;51.680;5.134;2023-06-22T07:45:10;101809.63;;;23.29;100.00
70546;BME280;58098;51.680;5.134;2023-06-22T07:47:46;101793.44;;;23.38;100.00
70546;BME280;58098;51.680;5.134;2023-06-22T07:50:11;101827.84;;;23.62;100.00
70546;BME280;58098;51.680;5.134;2023-06-22T07:52:36;101818.09;;;23.70;100.00
70546;BME280;58098;51.680;5.134;2023-06-22T07:55:02;101819.47;;;23.80;100.00
70546;BME280;58098;51.680;5.134;2023-06-22T07:57:28;101779.09;;;23.69;100.00
70546;BME280;58098;51.680;5.134;2023-06-22T08:00:05;101803.84;;;23.77;100.00
70546;BME280;58098;51.680;5.134;2023-06-22T08:02:42;101792.91;;;23.87;100.00
70546;BME280;58098;51.680;5.134;2023-06-22T08:05:09;101788.56;;;24.00;100.00
70546;BME280;58098;51.680;5.134;2023-06-22T08:07:38;101800.72;;;24.17;100.00
70546;BME280;58098;51.680;5.134;2023-06-22T08:10:05;101796.16;;;24.11;100.00
70546;BME280;58098;51.680;5.134;2023-06-22T08:12:30;101788.50;;;24.08;100.00
70546;BME280;58098;51.680;5.134;2023-06-22T08:14:56;101781.41;;;24.15;100.00
70546;BME280;58098;51.680;5.134;2023-06-22T08:17:22;101794.13;;;24.13;100.00
70546;BME280;58098;51.680;5.134;2023-06-22T08:19:48;101776.44;;;24.12;100.00
70546;BME280;58098;51.680;5.134;2023-06-22T08:22:13;101772.94;;;24.12;100.00
70546;BME280;58098;51.680;5.134;2023-06-22T08:24:39;101765.19;;;24.02;100.00
70546;BME280;58098;51.680;5.134;2023-06-22T08:27:07;101764.28;;;23.95;100.00
70546;BME280;58098;51.680;5.134;2023-06-22T08:29:33;101769.53;;;23.89;100.00
70546;BME280;58098;51.680;5.134;2023-06-22T08:31:59;101754.13;;;23.84;100.00
70546;BME280;58098;51.680;5.134;2023-06-22T08:34:24;101758.97;;;23.95;100.00
70546;BME280;58098;51.680;5.134;2023-06-22T08:36:53;101767.50;;;24.05;100.00
70546;BME280;58098;51.680;5.134;2023-06-22T08:39:21;101777.06;;;24.14;100.00
70546;BME280;58098;51.680;5.134;2023-06-22T08:41:48;101781.78;;;24.12;100.00
70546;BME280;58098;51.680;5.134;2023-06-22T08:44:13;101770.16;;;24.05;100.00
70546;BME280;58098;51.680;5.134;2023-06-22T08:46:39;101782.88;;;24.03;100.00
70546;BME280;58098;51.680;5.134;2023-06-22T08:49:06;101773.06;;;23.89;100.00
70546;BME280;58098;51.680;5.134;2023-06-22T08:51:31;101775.16;;;23.94;100.00
70546;BME280;58098;51.680;5.134;2023-06-22T08:53:57;101776.06;;;23.86;100.00
70546;BME280;58098;51.680;5.134;2023-06-22T08:56:22;101783.81;;;23.81;100.00
70546;BME280;58098;51.680;5.134;2023-06-22T08:58:48;101772.69;;;23.78;100.00
70546;BME280;58098;51.680;5.134;2023-06-22T09:01:13;101764.22;;;23.74;100.00
70546;BME280;58098;51.680;5.134;2023-06-22T09:03:40;101758.25;;;23.72;100.00
70546;BME280;58098;51.680;5.134;2023-06-22T09:06:05;101767.72;;;23.75;100.00
70546;BME280;58098;51.680;5.134;2023-06-22T09:08:31;101764.31;;;23.66;100.00
70546;BME280;58098;51.680;5.134;2023-06-22T09:10:57;101764.94;;;23.53;100.00
70546;BME280;58098;51.680;5.134;2023-06-22T09:13:22;101755.75;;;23.41;100.00
70546;BME280;58098;51.680;5.134;2023-06-22T09:15:47;101757.06;;;23.45;100.00
70546;BME280;58098;51.680;5.134;2023-06-22T09:18:13;101771.94;;;23.54;100.00
70546;BME280;58098;51.680;5.134;2023-06-22T09:20:39;101765.50;;;23.49;100.00
70546;BME280;58098;51.680;5.134;2023-06-22T09:23:04;101759.88;;;23.44;100.00
70546;BME280;58098;51.680;5.134;2023-06-22T09:25:30;101759.25;;;23.56;100.00
70546;BME280;58098;51.680;5.134;2023-06-22T09:27:55;101753.34;;;23.46;100.00
70546;BME280;58098;51.680;5.134;2023-06-22T09:30:21;101758.31;;;23.49;100.00
70546;BME280;58098;51.680;5.134;2023-06-22T09:32:46;101746.66;;;23.36;100.00
70546;BME280;58098;51.680;5.134;2023-06-22T09:35:12;101738.78;;;23.34;100.00
70546;BME280;58098;51.680;5.134;2023-06-22T09:37:38;101754.25;;;23.39;100.00
70546;BME280;58098;51.680;5.134;2023-06-22T09:40:05;101748.66;;;23.34;100.00
70546;BME280;58098;51.680;5.134;2023-06-22T09:42:35;101748.66;;;23.34;100.00
70546;BME280;58098;51.680;5.134;2023-06-22T09:45:00;101738.34;;;23.31;100.00
70546;BME280;58098;51.680;5.134;2023-06-22T09:47:27;101747.47;;;23.36;100.00
70546;BME280;58098;51.680;5.134;2023-06-22T09:49:52;101729.84;;;23.35;100.00
70546;BME280;58098;51.680;5.134;2023-06-22T09:52:18;101737.75;;;23.43;100.00
70546;BME280;58098;51.680;5.134;2023-06-22T09:54:43;101746.69;;;23.50;100.00
70546;BME280;58098;51.680;5.134;2023-06-22T09:57:08;101748.16;;;23.53;100.00
70546;BME280;58098;51.680;5.134;2023-06-22T09:59:34;101737.00;;;23.49;100.00
70546;BME280;58098;51.680;5.134;2023-06-22T10:01:59;101749.13;;;23.52;100.00
70546;BME280;58098;51.680;5.134;2023-06-22T10:04:24;101739.22;;;23.46;100.00
70546;BME280;58098;51.680;5.134;2023-06-22T10:06:50;101746.84;;;23.49;100.00
70546;BME280;58098;51.680;5.134;2023-06-22T10:09:16;101740.69;;;23.48;100.00
70546;BME280;58098;51.680;5.134;2023-06-22T10:11:41;101758.41;;;23.56;100.00
70546;BME280;58098;51.680;5.134;2023-06-22T10:14:06;101747.75;;;23.56;100.00
70546;BME280;58098;51.680;5.134;2023-06-22T10:16:32;101740.31;;;23.51;100.00
70546;BME280;58098;51.680;5.134;2023-06-22T10:18:58;101745.38;;;23.61;100.00
70546;BME280;58098;51.680;5.134;2023-06-22T10:21:23;101750.91;;;23.74;100.00
70546;BME280;58098;51.680;5.134;2023-06-22T10:23:48;101746.47;;;23.81;100.00
70546;BME280;58098;51.680;5.134;2023-06-22T10:26:14;101736.44;;;23.69;100.00
70546;BME280;58098;51.680;5.134;2023-06-22T10:28:39;101748.50;;;23.79;100.00
70546;BME280;58098;51.680;5.134;2023-06-22T10:31:04;101744.72;;;23.74;100.00
70546;BME280;58098;51.680;5.134;2023-06-22T10:33:30;101731.59;;;23.72;100.00
70546;BME280;58098;51.680;5.134;2023-06-22T10:35:55;101743.38;;;23.78;100.00
70546;BME280;58098;51.680;5.134;2023-06-22T10:38:20;101732.94;;;23.68;100.00
70546;BME280;58098;51.680;5.134;2023-06-22T10:40:46;101737.28;;;23.69;100.00
70546;BME280;58098;51.680;5.134;2023-06-22T10:43:11;101746.13;;;23.70;100.00
70546;BME280;58098;51.680;5.134;2023-06-22T10:45:37;101749.41;;;23.72;100.00
70546;BME280;58098;51.680;5.134;2023-06-22T10:48:02;101743.09;;;23.73;100.00
70546;BME280;58098;51.680;5.134;2023-06-22T10:50:28;101742.44;;;23.71;100.00
70546;BME280;58098;51.680;5.134;2023-06-22T10:52:54;101752.56;;;23.75;100.00
70546;BME280;58098;51.680;5.134;2023-06-22T10:55:19;101743.38;;;23.78;100.00
70546;BME280;58098;51.680;5.134;2023-06-22T10:57:44;101746.75;;;23.86;100.00
70546;BME280;58098;51.680;5.134;2023-06-22T11:00:12;101747.84;;;23.92;100.00
70546;BME280;58098;51.680;5.134;2023-06-22T11:02:38;101753.63;;;23.95;100.00
70546;BME280;58098;51.680;5.134;2023-06-22T11:05:04;101758.97;;;23.95;100.00
70546;BME280;58098;51.680;5.134;2023-06-22T11:07:29;101756.41;;;24.02;100.00
70546;BME280;58098;51.680;5.134;2023-06-22T11:09:55;101759.22;;;24.00;100.00
70546;BME280;58098;51.680;5.134;2023-06-22T11:12:20;101749.75;;;23.98;100.00
70546;BME280;58098;51.680;5.134;2023-06-22T11:14:46;101755.56;;;23.87;100.00
70546;BME280;58098;51.680;5.134;2023-06-22T11:17:11;101755.47;;;23.95;100.00
70546;BME280;58098;51.680;5.134;2023-06-22T11:19:37;101752.06;;;24.01;100.00
70546;BME280;58098;51.680;5.134;2023-06-22T11:22:02;101756.41;;;24.02;100.00
70546;BME280;58098;51.680;5.134;2023-06-22T11:24:27;101761.84;;;24.08;100.00
70546;BME280;58098;51.680;5.134;2023-06-22T11:26:53;101748.00;;;24.19;100.00
70546;BME280;58098;51.680;5.134;2023-06-22T11:29:18;101751.78;;;24.25;100.00
70546;BME280;58098;51.680;5.134;2023-06-22T11:31:43;101743.59;;;24.12;100.00
70546;BME280;58098;51.680;5.134;2023-06-22T11:34:09;101747.03;;;23.91;100.00
70546;BME280;58098;51.680;5.134;2023-06-22T11:36:34;101709.72;;;23.62;100.00
70546;BME280;58098;51.680;5.134;2023-06-22T11:39:01;101737.47;;;23.82;100.00
70546;BME280;58098;51.680;5.134;2023-06-22T11:41:26;101735.81;;;23.81;100.00
70546;BME280;58098;51.680;5.134;2023-06-22T11:43:51;101722.75;;;23.86;100.00
70546;BME280;58098;51.680;5.134;2023-06-22T11:46:17;101702.00;;;23.67;100.00
70546;BME280;58098;51.680;5.134;2023-06-22T11:48:42;101706.69;;;23.80;100.00
70546;BME280;58098;51.680;5.134;2023-06-22T11:51:08;101721.47;;;23.82;100.00
70546;BME280;58098;51.680;5.134;2023-06-22T11:53:34;101720.09;;;23.42;100.00
70546;BME280;58098;51.680;5.134;2023-06-22T11:56:00;101714.75;;;22.90;100.00
70546;BME280;58098;51.680;5.134;2023-06-22T11:58:26;101728.06;;;22.90;100.00
70546;BME280;58098;51.680;5.134;2023-06-22T12:00:51;101721.84;;;22.98;100.00
70546;BME280;58098;51.680;5.134;2023-06-22T12:03:17;101727.84;;;23.15;100.00
70546;BME280;58098;51.680;5.134;2023-06-22T12:05:42;101738.72;;;23.28;100.00
70546;BME280;58098;51.680;5.134;2023-06-22T12:08:08;101732.44;;;23.43;100.00
70546;BME280;58098;51.680;5.134;2023-06-22T12:10:33;101725.16;;;23.37;100.00
70546;BME280;58098;51.680;5.134;2023-06-22T12:12:59;101728.13;;;23.34;100.00
70546;BME280;58098;51.680;5.134;2023-06-22T12:15:25;101720.69;;;23.30;100.00
70546;BME280;58098;51.680;5.134;2023-06-22T12:17:51;101721.81;;;23.21;100.00
70546;BME280;58098;51.680;5.134;2023-06-22T12:20:16;101714.97;;;23.04;100.00
70546;BME280;58098;51.680;5.134;2023-06-22T12:22:42;101708.72;;;22.96;100.00
70546;BME280;58098;51.680;5.134;2023-06-22T12:25:10;101713.94;;;22.90;100.00
70546;BME280;58098;51.680;5.134;2023-06-22T12:27:36;101718.47;;;22.59;100.00
70546;BME280;58098;51.680;5.134;2023-06-22T12:30:03;101720.03;;;22.22;100.00
70546;BME280;58098;51.680;5.134;2023-06-22T12:32:28;101702.81;;;21.88;100.00
70546;BME280;58098;51.680;5.134;2023-06-22T12:34:54;101708.94;;;21.80;100.00
70546;BME280;58098;51.680;5.134;2023-06-22T12:37:19;101714.78;;;21.76;100.00